Time;durP1;ratioP1;P1;durP2;ratioP2;P2;SDS_P1;SDS_P2;PMS_P1;PMS_P2;Temp;Humidity;BMP_temperature;BMP_pressure;BME280_temperature;BME280_humidity;BME280_pressure;Samples;Min_cycle;Max_cycle;Signal;HPM_P1;HPM_P2
2022/11/18 00:01:23;;;;;;;;;;;7.60;99.90;;;;;;5133398;27;20401;-41
2022/11/18 00:03:49;;;;;;;;;;;7.60;99.90;;;;;;5132579;27;20350;-42
2022/11/18 00:06:16;;;;;;;;;;;7.60;99.90;;;;;;5133646;27;19919;-42
2022/11/18 00:08:41;;;;;;;;;;;7.60;99.90;;;;;;5132024;28;19988;-42
2022/11/18 00:11:08;;;;;;;;;;;7.60;99.90;;;;;;5132061;28;20434;-41
2022/11/18 00:16:18;;;;;;;;;;;7.60;99.90;;;;;;5133333;28;19918;-41
2022/11/18 00:18:43;;;;;;;;;;;7.60;99.90;;;;;;5135155;27;19912;-43
2022/11/18 00:21:10;;;;;;;;;;;7.60;99.90;;;;;;5137987;27;19907;-40
2022/11/18 00:23:35;;;;;;;;;;;7.60;99.90;;;;;;5137220;27;19942;-42
2022/11/18 00:26:05;;;;;;;;;;;7.70;99.90;;;;;;5136446;27;20448;-42
2022/11/18 00:28:31;;;;;;;;;;;7.60;99.90;;;;;;5137231;27;19935;-43
2022/11/18 00:31:00;;;;;;;;;;;7.60;99.90;;;;;;5136625;27;20355;-43
2022/11/18 00:33:26;;;;;;;;;;;7.70;99.90;;;;;;5137585;27;19911;-42
2022/11/18 00:35:54;;;;;;;;;;;7.70;99.90;;;;;;5137325;27;20277;-40
2022/11/18 00:38:20;;;;;;;;;;;7.70;99.90;;;;;;5136380;27;19918;-41
2022/11/18 00:40:45;;;;;;;;;;;7.70;99.90;;;;;;5137143;27;19912;-41
2022/11/18 00:43:10;;;;;;;;;;;7.60;99.90;;;;;;5137021;27;19964;-41
2022/11/18 00:45:36;;;;;;;;;;;7.70;99.90;;;;;;5135891;27;19976;-42
2022/11/18 00:48:02;;;;;;;;;;;7.70;99.90;;;;;;5137052;27;19912;-43
2022/11/18 00:50:27;;;;;;;;;;;7.70;99.90;;;;;;5136562;27;19911;-42
2022/11/18 00:52:53;;;;;;;;;;;7.70;99.90;;;;;;5136072;27;19994;-42
2022/11/18 00:55:18;;;;;;;;;;;7.70;99.90;;;;;;5137025;27;20282;-44
2022/11/18 00:57:44;;;;;;;;;;;7.70;99.90;;;;;;5136729;27;19907;-43
2022/11/18 01:00:09;;;;;;;;;;;7.70;99.90;;;;;;5136197;27;19995;-42
2022/11/18 01:02:35;;;;;;;;;;;7.70;99.90;;;;;;5136960;27;19916;-43
2022/11/18 01:05:00;;;;;;;;;;;7.70;99.90;;;;;;5136601;27;19921;-44
2022/11/18 01:07:26;;;;;;;;;;;7.70;99.90;;;;;;5136165;27;19923;-43
2022/11/18 01:09:51;;;;;;;;;;;7.70;99.90;;;;;;5136236;27;19912;-42
2022/11/18 01:15:01;;;;;;;;;;;7.70;99.90;;;;;;5115536;28;19923;-41
2022/11/18 01:17:30;;;;;;;;;;;7.70;99.90;;;;;;5116326;28;19908;-43
2022/11/18 01:19:55;;;;;;;;;;;7.70;99.90;;;;;;5135808;27;19911;-42
2022/11/18 01:22:21;;;;;;;;;;;7.70;99.90;;;;;;5135745;27;19915;-41
2022/11/18 01:24:46;;;;;;;;;;;7.70;99.90;;;;;;5136165;27;20268;-41
2022/11/18 01:27:11;;;;;;;;;;;7.70;99.90;;;;;;5135379;27;20208;-42
2022/11/18 01:29:37;;;;;;;;;;;7.70;99.90;;;;;;5136246;27;20425;-42
2022/11/18 01:32:02;;;;;;;;;;;7.70;99.90;;;;;;5136465;27;19959;-41
2022/11/18 01:34:28;;;;;;;;;;;7.70;99.90;;;;;;5135412;27;19912;-42
2022/11/18 01:36:55;;;;;;;;;;;7.70;99.90;;;;;;5135798;27;20431;-44
2022/11/18 01:39:20;;;;;;;;;;;7.70;99.90;;;;;;5136015;27;19911;-45
2022/11/18 01:41:46;;;;;;;;;;;7.70;99.90;;;;;;5135667;27;19915;-42
2022/11/18 01:44:30;;;;;;;;;;;7.60;99.90;;;;;;5136018;27;20251;-41
2022/11/18 01:46:56;;;;;;;;;;;7.70;99.90;;;;;;5135626;27;19926;-42
2022/11/18 01:49:21;;;;;;;;;;;7.60;99.90;;;;;;5135364;27;19911;-43
2022/11/18 01:51:52;;;;;;;;;;;7.70;99.90;;;;;;5134462;27;20345;-42
2022/11/18 01:54:20;;;;;;;;;;;7.70;99.90;;;;;;5136043;27;19916;-43
2022/11/18 01:56:48;;;;;;;;;;;7.60;99.90;;;;;;5135256;27;19908;-43
2022/11/18 01:59:17;;;;;;;;;;;7.70;99.90;;;;;;5135520;27;19911;-42
2022/11/18 02:01:43;;;;;;;;;;;7.60;99.90;;;;;;5135257;27;19911;-43
2022/11/18 02:04:10;;;;;;;;;;;7.60;99.90;;;;;;5116367;27;20017;-41
2022/11/18 02:06:36;;;;;;;;;;;7.60;99.90;;;;;;5135504;27;19915;-43
2022/11/18 02:09:02;;;;;;;;;;;7.60;99.90;;;;;;5135114;27;19980;-42
2022/11/18 02:14:12;;;;;;;;;;;7.60;99.90;;;;;;5135645;27;19964;-42
2022/11/18 02:16:56;;;;;;;;;;;7.60;99.90;;;;;;5134735;27;20261;-41
2022/11/18 02:19:24;;;;;;;;;;;7.60;99.90;;;;;;5121304;27;19912;-42
2022/11/18 02:21:56;;;;;;;;;;;7.60;99.90;;;;;;5135151;27;20289;-43
2022/11/18 02:24:21;;;;;;;;;;;7.60;99.90;;;;;;5134371;27;19957;-43
2022/11/18 02:26:53;;;;;;;;;;;7.60;99.90;;;;;;5135291;27;19962;-44
2022/11/18 02:29:28;;;;;;;;;;;7.60;99.90;;;;;;5134839;27;19980;-41
2022/11/18 02:31:57;;;;;;;;;;;7.60;99.90;;;;;;5134495;27;19933;-42
2022/11/18 02:34:28;;;;;;;;;;;7.60;99.90;;;;;;5134938;27;20010;-42
2022/11/18 02:36:56;;;;;;;;;;;7.60;99.90;;;;;;5134875;27;19907;-42
2022/11/18 02:39:27;;;;;;;;;;;7.60;99.90;;;;;;5130807;27;19956;-42
2022/11/18 02:41:54;;;;;;;;;;;7.60;99.90;;;;;;5133828;27;20001;-41
2022/11/18 02:44:21;;;;;;;;;;;7.60;99.90;;;;;;5126409;27;19950;-43
2022/11/18 02:46:50;;;;;;;;;;;7.60;99.90;;;;;;5113207;28;19919;-43
2022/11/18 02:49:18;;;;;;;;;;;7.60;99.90;;;;;;5114597;28;20017;-41
2022/11/18 02:51:45;;;;;;;;;;;7.60;99.90;;;;;;5113528;28;19983;-42
2022/11/18 02:54:12;;;;;;;;;;;7.60;99.90;;;;;;5127049;27;19912;-42
2022/11/18 02:56:37;;;;;;;;;;;7.60;99.90;;;;;;5134595;27;19918;-42
2022/11/18 02:59:03;;;;;;;;;;;7.60;99.90;;;;;;5133387;27;19994;-42
2022/11/18 03:01:30;;;;;;;;;;;7.60;99.90;;;;;;5134618;27;19912;-43
2022/11/18 03:03:55;;;;;;;;;;;7.60;99.90;;;;;;5134489;27;20038;-41
2022/11/18 03:06:30;;;;;;;;;;;7.60;99.90;;;;;;5133686;27;20374;-44
2022/11/18 03:08:57;;;;;;;;;;;7.50;99.90;;;;;;5134145;27;20322;-42
2022/11/18 03:11:23;;;;;;;;;;;7.50;99.90;;;;;;5134599;27;19931;-42
2022/11/18 03:13:52;;;;;;;;;;;7.60;99.90;;;;;;5133646;27;19918;-42
2022/11/18 03:16:21;;;;;;;;;;;7.60;99.90;;;;;;5134677;27;19908;-42
2022/11/18 03:18:52;;;;;;;;;;;7.60;99.90;;;;;;5134474;27;19958;-42
2022/11/18 03:21:40;;;;;;;;;;;7.50;99.90;;;;;;5133810;27;20055;-43
2022/11/18 03:24:08;;;;;;;;;;;7.50;99.90;;;;;;5119869;27;19915;-42
2022/11/18 03:26:43;;;;;;;;;;;7.50;99.90;;;;;;5133644;27;19919;-42
2022/11/18 03:29:11;;;;;;;;;;;7.50;99.90;;;;;;5134023;27;19932;-42
2022/11/18 03:31:39;;;;;;;;;;;7.50;99.90;;;;;;5114191;27;19954;-43
2022/11/18 03:34:07;;;;;;;;;;;7.50;99.90;;;;;;5133191;27;19968;-41
2022/11/18 03:36:36;;;;;;;;;;;7.50;99.90;;;;;;5134219;27;19907;-41
2022/11/18 03:39:04;;;;;;;;;;;7.50;99.90;;;;;;5133844;27;19912;-43
2022/11/18 03:41:31;;;;;;;;;;;7.50;99.90;;;;;;5133404;27;19939;-43
2022/11/18 03:44:09;;;;;;;;;;;7.50;99.90;;;;;;5133529;27;19911;-42
2022/11/18 03:46:39;;;;;;;;;;;7.50;99.90;;;;;;5133602;27;20022;-41
2022/11/18 03:49:06;;;;;;;;;;;7.50;99.90;;;;;;5133001;27;19919;-41
2022/11/18 03:51:36;;;;;;;;;;;7.50;99.90;;;;;;5133365;27;20358;-43
2022/11/18 03:54:05;;;;;;;;;;;7.50;99.90;;;;;;5133100;27;19947;-42
2022/11/18 03:56:35;;;;;;;;;;;7.50;99.90;;;;;;5132897;27;19912;-41
2022/11/18 03:59:09;;;;;;;;;;;7.40;99.90;;;;;;5133464;27;20403;-43
2022/11/18 04:01:38;;;;;;;;;;;7.50;99.90;;;;;;5133680;27;19919;-43
2022/11/18 04:04:04;;;;;;;;;;;7.40;99.90;;;;;;5132777;27;19919;-43
2022/11/18 04:06:33;;;;;;;;;;;7.50;99.90;;;;;;5133733;27;19919;-43
2022/11/18 04:09:02;;;;;;;;;;;7.50;99.90;;;;;;5132512;27;20006;-44
2022/11/18 04:14:17;;;;;;;;;;;7.50;99.90;;;;;;5133293;28;19922;-41
2022/11/18 04:16:43;;;;;;;;;;;7.40;99.90;;;;;;5132323;28;19908;-42
2022/11/18 04:19:09;;;;;;;;;;;7.40;99.90;;;;;;5133348;28;20361;-42
2022/11/18 04:21:34;;;;;;;;;;;7.40;99.90;;;;;;5133706;28;20002;-42
2022/11/18 04:24:00;;;;;;;;;;;7.40;99.90;;;;;;5132451;28;19973;-43
2022/11/18 04:26:25;;;;;;;;;;;7.40;99.90;;;;;;5132892;28;20010;-43
2022/11/18 04:28:51;;;;;;;;;;;7.40;99.90;;;;;;5132299;28;20251;-42
2022/11/18 04:31:16;;;;;;;;;;;7.40;99.90;;;;;;5131406;28;19915;-45
2022/11/18 04:33:42;;;;;;;;;;;7.40;99.90;;;;;;5132240;28;19994;-42
2022/11/18 04:36:07;;;;;;;;;;;7.40;99.90;;;;;;5132523;28;19907;-43
2022/11/18 04:38:33;;;;;;;;;;;7.40;99.90;;;;;;5131533;28;19911;-42
2022/11/18 04:40:58;;;;;;;;;;;7.40;99.90;;;;;;5133191;28;19907;-43
2022/11/18 04:43:24;;;;;;;;;;;7.40;99.90;;;;;;5133322;28;19907;-43
2022/11/18 04:45:49;;;;;;;;;;;7.40;99.90;;;;;;5148836;27;20021;-43
2022/11/18 04:48:15;;;;;;;;;;;7.30;99.90;;;;;;5154118;27;20278;-43
2022/11/18 04:50:40;;;;;;;;;;;7.40;99.90;;;;;;5153918;27;19960;-43
2022/11/18 04:53:06;;;;;;;;;;;7.40;99.90;;;;;;5151283;27;20365;-42
2022/11/18 04:55:34;;;;;;;;;;;7.40;99.90;;;;;;5133250;28;20004;-43
2022/11/18 04:57:59;;;;;;;;;;;7.40;99.90;;;;;;5132153;28;19922;-43
2022/11/18 05:00:25;;;;;;;;;;;7.30;99.90;;;;;;5132267;28;20288;-43
2022/11/18 05:02:50;;;;;;;;;;;7.40;99.90;;;;;;5132849;27;19911;-43
2022/11/18 05:05:16;;;;;;;;;;;7.40;99.90;;;;;;5135530;27;19911;-43
2022/11/18 05:07:41;;;;;;;;;;;7.40;99.90;;;;;;5136819;27;20389;-43
2022/11/18 05:10:07;;;;;;;;;;;7.40;99.90;;;;;;5136596;27;19915;-43
2022/11/18 05:12:47;;;;;;;;;;;7.40;99.90;;;;;;5136126;27;19907;-45
2022/11/18 05:15:14;;;;;;;;;;;7.30;99.90;;;;;;5136896;27;19918;-43
2022/11/18 05:17:39;;;;;;;;;;;7.30;99.90;;;;;;5136842;27;19960;-43
2022/11/18 05:20:05;;;;;;;;;;;7.30;99.90;;;;;;5135684;27;19915;-41
2022/11/18 05:22:30;;;;;;;;;;;7.30;99.90;;;;;;5136543;27;19912;-42
2022/11/18 05:24:56;;;;;;;;;;;7.30;99.90;;;;;;5135977;27;19954;-42
2022/11/18 05:27:21;;;;;;;;;;;7.30;99.90;;;;;;5135508;27;20009;-42
2022/11/18 05:29:47;;;;;;;;;;;7.30;99.90;;;;;;5136287;27;19908;-43
2022/11/18 05:32:12;;;;;;;;;;;7.30;99.90;;;;;;5136023;27;20005;-43
2022/11/18 05:34:39;;;;;;;;;;;7.30;99.90;;;;;;5135452;27;20276;-42
2022/11/18 05:37:04;;;;;;;;;;;7.20;99.90;;;;;;5136438;27;19914;-42
2022/11/18 05:39:30;;;;;;;;;;;7.30;99.90;;;;;;5136041;27;19915;-41
2022/11/18 05:44:40;;;;;;;;;;;7.30;99.90;;;;;;5136526;27;19919;-43
2022/11/18 05:47:05;;;;;;;;;;;7.30;99.90;;;;;;5121986;27;19920;-43
2022/11/18 05:49:30;;;;;;;;;;;7.30;99.90;;;;;;5114684;28;20400;-42
2022/11/18 05:51:56;;;;;;;;;;;7.20;99.90;;;;;;5115590;28;19908;-43
2022/11/18 05:54:21;;;;;;;;;;;7.30;99.90;;;;;;5114064;28;19915;-44
2022/11/18 05:56:47;;;;;;;;;;;7.20;99.90;;;;;;5115209;28;19999;-42
2022/11/18 05:59:13;;;;;;;;;;;7.20;99.90;;;;;;5114489;28;19912;-43
2022/11/18 06:01:38;;;;;;;;;;;7.20;99.90;;;;;;5112650;28;19942;-43
2022/11/18 06:04:08;;;;;;;;;;;7.20;99.90;;;;;;5111680;28;19983;-43
2022/11/18 06:06:33;;;;;;;;;;;7.20;99.90;;;;;;5112040;28;19934;-43
2022/11/18 06:09:01;;;;;;;;;;;7.20;99.90;;;;;;5112298;28;19919;-44
2022/11/18 06:11:27;;;;;;;;;;;7.20;99.90;;;;;;5113215;28;19914;-43
2022/11/18 06:14:09;;;;;;;;;;;7.20;99.90;;;;;;5112633;28;19935;-44
2022/11/18 06:16:35;;;;;;;;;;;7.10;99.90;;;;;;5098751;28;19918;-43
2022/11/18 06:19:02;;;;;;;;;;;7.10;99.90;;;;;;5105321;28;20291;-43
2022/11/18 06:21:28;;;;;;;;;;;7.10;99.90;;;;;;5108108;28;20395;-42
2022/11/18 06:23:53;;;;;;;;;;;7.10;99.90;;;;;;5109667;28;19943;-45
2022/11/18 06:26:19;;;;;;;;;;;7.10;99.90;;;;;;5112864;28;19924;-42
2022/11/18 06:28:45;;;;;;;;;;;7.10;99.90;;;;;;5112748;28;19915;-44
2022/11/18 06:31:11;;;;;;;;;;;7.10;99.90;;;;;;5111691;28;19916;-42
2022/11/18 06:33:36;;;;;;;;;;;7.00;99.90;;;;;;5112464;28;19908;-44
2022/11/18 06:36:02;;;;;;;;;;;7.10;99.90;;;;;;5094820;28;20260;-42
2022/11/18 06:38:27;;;;;;;;;;;7.00;99.90;;;;;;5107047;28;19950;-43
2022/11/18 06:40:53;;;;;;;;;;;7.00;99.90;;;;;;5099835;28;20019;-43
2022/11/18 06:48:47;;;;;;;;;;;7.00;99.90;;;;;;5108828;28;19923;-43
2022/11/18 06:51:13;;;;;;;;;;;7.00;99.90;;;;;;5111456;28;19908;-42
2022/11/18 06:53:38;;;;;;;;;;;7.00;99.90;;;;;;5112349;28;20045;-44
2022/11/18 06:56:05;;;;;;;;;;;7.00;99.90;;;;;;5113948;27;20301;-42
2022/11/18 06:58:30;;;;;;;;;;;7.00;99.90;;;;;;5111718;28;19920;-41
2022/11/18 07:00:56;;;;;;;;;;;7.00;99.90;;;;;;5111993;28;19919;-43
2022/11/18 07:03:21;;;;;;;;;;;7.00;99.90;;;;;;5113980;28;20374;-42
2022/11/18 07:05:47;;;;;;;;;;;7.00;99.90;;;;;;5113447;28;19923;-44
2022/11/18 07:08:12;;;;;;;;;;;7.00;99.90;;;;;;5113845;28;19907;-44
2022/11/18 07:10:37;;;;;;;;;;;7.00;99.90;;;;;;5112337;28;20263;-43
2022/11/18 07:13:03;;;;;;;;;;;7.00;99.90;;;;;;5112720;28;19908;-42
2022/11/18 07:15:28;;;;;;;;;;;7.00;99.90;;;;;;5113745;28;19908;-43
2022/11/18 07:17:54;;;;;;;;;;;7.00;99.90;;;;;;5128920;27;19976;-42
2022/11/18 07:20:19;;;;;;;;;;;7.00;99.90;;;;;;5133616;27;20010;-42
2022/11/18 07:22:45;;;;;;;;;;;7.00;99.90;;;;;;5134299;27;19968;-42
2022/11/18 07:25:10;;;;;;;;;;;6.90;99.90;;;;;;5133619;27;19907;-41
2022/11/18 07:27:36;;;;;;;;;;;6.90;99.90;;;;;;5133133;27;20354;-42
2022/11/18 07:30:01;;;;;;;;;;;7.00;99.90;;;;;;5134120;27;19911;-43
2022/11/18 07:32:27;;;;;;;;;;;6.90;99.90;;;;;;5134179;27;19908;-41
2022/11/18 07:34:52;;;;;;;;;;;6.90;99.90;;;;;;5133256;27;19907;-42
2022/11/18 07:37:17;;;;;;;;;;;6.90;99.90;;;;;;5134189;27;19911;-42
2022/11/18 07:39:43;;;;;;;;;;;6.90;99.90;;;;;;5134034;27;20361;-43
2022/11/18 07:42:08;;;;;;;;;;;6.90;99.90;;;;;;5124025;27;20278;-42
2022/11/18 07:44:34;;;;;;;;;;;6.90;99.90;;;;;;5113126;28;19908;-42
2022/11/18 07:46:59;;;;;;;;;;;6.90;99.90;;;;;;5112260;27;19924;-42
2022/11/18 07:49:25;;;;;;;;;;;6.90;99.90;;;;;;5123355;27;19907;-41
2022/11/18 07:51:50;;;;;;;;;;;6.90;99.90;;;;;;5133904;27;20007;-43
2022/11/18 07:54:16;;;;;;;;;;;6.90;99.90;;;;;;5132673;27;19919;-43
2022/11/18 07:56:42;;;;;;;;;;;6.90;99.90;;;;;;5123419;27;19915;-42
2022/11/18 07:59:07;;;;;;;;;;;7.00;99.90;;;;;;5111837;28;19962;-42
2022/11/18 08:01:32;;;;;;;;;;;6.90;99.90;;;;;;5111299;28;20354;-42
2022/11/18 08:04:09;;;;;;;;;;;7.00;99.90;;;;;;5121765;27;20001;-44
2022/11/18 08:06:34;;;;;;;;;;;6.90;99.90;;;;;;5133634;27;19938;-42
2022/11/18 08:09:00;;;;;;;;;;;6.90;99.90;;;;;;5132614;28;20370;-41
2022/11/18 08:11:25;;;;;;;;;;;6.90;99.90;;;;;;5133525;28;19908;-43
2022/11/18 08:13:51;;;;;;;;;;;6.90;99.90;;;;;;5124478;28;19912;-42
2022/11/18 08:16:18;;;;;;;;;;;6.90;99.90;;;;;;5122744;28;19911;-44
2022/11/18 08:18:44;;;;;;;;;;;6.90;99.90;;;;;;5126244;28;19919;-42
2022/11/18 08:21:09;;;;;;;;;;;6.90;99.90;;;;;;5112350;28;19911;-42
2022/11/18 08:23:35;;;;;;;;;;;6.90;99.90;;;;;;5112021;28;19940;-42
2022/11/18 08:26:02;;;;;;;;;;;6.90;99.90;;;;;;5098786;28;19916;-42
2022/11/18 08:28:28;;;;;;;;;;;6.90;99.90;;;;;;5113416;28;19912;-41
2022/11/18 08:30:53;;;;;;;;;;;6.90;99.90;;;;;;5112111;28;19994;-43
2022/11/18 08:33:19;;;;;;;;;;;6.90;99.90;;;;;;5112676;28;19912;-42
2022/11/18 08:35:44;;;;;;;;;;;6.90;99.90;;;;;;5112720;28;19915;-43
2022/11/18 08:38:09;;;;;;;;;;;6.90;99.90;;;;;;5111204;28;19912;-42
2022/11/18 08:40:35;;;;;;;;;;;6.90;99.90;;;;;;5116821;28;19908;-43
2022/11/18 08:43:00;;;;;;;;;;;6.90;99.90;;;;;;5116708;28;20393;-43
2022/11/18 08:45:26;;;;;;;;;;;7.00;99.90;;;;;;5115768;28;19954;-42
2022/11/18 08:47:51;;;;;;;;;;;7.00;99.90;;;;;;5152062;27;19923;-43
2022/11/18 08:50:17;;;;;;;;;;;6.90;99.90;;;;;;5157848;27;19963;-42
2022/11/18 08:52:42;;;;;;;;;;;6.90;99.90;;;;;;5158135;27;20018;-43
2022/11/18 08:55:08;;;;;;;;;;;6.90;99.90;;;;;;5158629;27;19911;-43
2022/11/18 08:57:33;;;;;;;;;;;6.90;99.90;;;;;;5156668;27;20288;-43
2022/11/18 08:59:59;;;;;;;;;;;6.90;99.90;;;;;;5157719;27;20314;-42
2022/11/18 09:02:24;;;;;;;;;;;6.90;99.90;;;;;;5157883;27;19922;-42
2022/11/18 09:04:50;;;;;;;;;;;6.90;99.90;;;;;;5157074;27;19914;-42
2022/11/18 09:07:16;;;;;;;;;;;6.90;99.90;;;;;;5157651;27;20418;-42
2022/11/18 09:09:42;;;;;;;;;;;6.90;99.90;;;;;;5157821;27;19911;-42
2022/11/18 09:12:08;;;;;;;;;;;6.90;99.90;;;;;;5156860;27;19911;-43
2022/11/18 09:14:34;;;;;;;;;;;6.90;99.90;;;;;;5157594;27;20265;-43
2022/11/18 09:16:59;;;;;;;;;;;6.90;99.90;;;;;;5157628;27;19907;-44
2022/11/18 09:19:25;;;;;;;;;;;6.90;99.90;;;;;;5155924;27;19907;-42
2022/11/18 09:21:50;;;;;;;;;;;6.90;99.90;;;;;;5157560;27;19911;-43
2022/11/18 09:24:16;;;;;;;;;;;6.90;99.90;;;;;;5157510;27;19993;-42
2022/11/18 09:26:41;;;;;;;;;;;6.90;99.90;;;;;;5156681;27;19923;-42
2022/11/18 09:29:07;;;;;;;;;;;6.90;99.90;;;;;;5157349;27;19915;-42
2022/11/18 09:31:33;;;;;;;;;;;6.90;99.90;;;;;;5157608;27;19911;-43
2022/11/18 09:33:59;;;;;;;;;;;6.90;99.90;;;;;;5156477;27;19914;-43
2022/11/18 09:36:25;;;;;;;;;;;6.90;99.90;;;;;;5157112;27;19915;-42
2022/11/18 09:38:51;;;;;;;;;;;6.90;99.90;;;;;;5157149;27;19915;-42
2022/11/18 09:41:22;;;;;;;;;;;6.90;99.90;;;;;;5156118;27;19908;-42
2022/11/18 09:43:56;;;;;;;;;;;6.90;99.90;;;;;;5157145;27;20400;-43
2022/11/18 09:46:22;;;;;;;;;;;6.90;99.90;;;;;;5156752;27;19971;-42
2022/11/18 09:51:36;;;;;;;;;;;6.90;99.90;;;;;;5155728;27;20315;-42
2022/11/18 09:54:02;;;;;;;;;;;6.90;99.90;;;;;;5156074;27;19911;-43
2022/11/18 09:56:28;;;;;;;;;;;6.90;99.90;;;;;;5156923;27;19907;-41
2022/11/18 09:58:54;;;;;;;;;;;6.90;99.90;;;;;;5156741;27;20281;-42
2022/11/18 10:01:20;;;;;;;;;;;6.90;99.90;;;;;;5156098;27;19914;-42
2022/11/18 10:03:45;;;;;;;;;;;6.90;99.90;;;;;;5156650;27;20250;-43
2022/11/18 10:06:21;;;;;;;;;;;6.90;99.90;;;;;;5156664;27;19915;-42
2022/11/18 10:09:05;;;;;;;;;;;6.90;99.90;;;;;;5155844;27;19908;-42
2022/11/18 10:11:34;;;;;;;;;;;7.00;99.90;;;;;;5156522;27;19908;-42
2022/11/18 10:14:08;;;;;;;;;;;7.00;99.90;;;;;;5156383;27;19907;-42
2022/11/18 10:16:47;;;;;;;;;;;7.00;99.90;;;;;;5155662;27;19993;-43
2022/11/18 10:19:24;;;;;;;;;;;7.00;99.90;;;;;;5156577;27;19907;-42
2022/11/18 10:21:54;;;;;;;;;;;7.00;99.90;;;;;;5155666;27;19907;-42
2022/11/18 10:24:22;;;;;;;;;;;7.00;99.90;;;;;;5156164;27;19951;-42
2022/11/18 10:26:52;;;;;;;;;;;7.00;99.90;;;;;;5156166;27;19915;-42
2022/11/18 10:29:18;;;;;;;;;;;6.90;99.90;;;;;;5155509;27;20369;-42
2022/11/18 10:31:57;;;;;;;;;;;7.00;99.90;;;;;;5156217;27;19913;-41
2022/11/18 10:34:22;;;;;;;;;;;7.00;99.90;;;;;;5156140;27;19915;-43
2022/11/18 10:36:58;;;;;;;;;;;6.90;99.90;;;;;;5155346;27;19968;-42
2022/11/18 10:39:24;;;;;;;;;;;6.90;99.90;;;;;;5156143;27;19929;-42
2022/11/18 10:41:54;;;;;;;;;;;6.90;99.90;;;;;;5155622;27;20358;-42
2022/11/18 10:44:28;;;;;;;;;;;6.90;99.90;;;;;;5154893;27;19914;-44
2022/11/18 10:46:53;;;;;;;;;;;6.90;99.90;;;;;;5155443;27;19919;-43
2022/11/18 10:49:19;;;;;;;;;;;6.90;99.90;;;;;;5155742;27;19907;-42
2022/11/18 10:52:07;;;;;;;;;;;6.90;99.90;;;;;;5154921;27;19949;-42
2022/11/18 10:54:33;;;;;;;;;;;6.90;99.90;;;;;;5155771;27;19911;-41
2022/11/18 10:57:06;;;;;;;;;;;6.90;99.90;;;;;;5154806;27;19952;-43
2022/11/18 10:59:33;;;;;;;;;;;6.80;99.90;;;;;;5155609;27;19906;-42
2022/11/18 11:02:17;;;;;;;;;;;6.80;99.90;;;;;;5154239;27;19911;-44
2022/11/18 11:04:44;;;;;;;;;;;6.80;99.90;;;;;;5148693;27;19930;-42
2022/11/18 11:07:26;;;;;;;;;;;6.90;99.90;;;;;;5153345;27;19915;-43
2022/11/18 11:09:58;;;;;;;;;;;6.90;99.90;;;;;;5154015;27;19917;-43
2022/11/18 11:12:23;;;;;;;;;;;6.80;99.90;;;;;;5152182;27;19911;-42
2022/11/18 11:14:53;;;;;;;;;;;6.80;99.90;;;;;;5154434;27;19934;-42
2022/11/18 11:17:21;;;;;;;;;;;6.80;99.90;;;;;;5154006;27;19907;-43
2022/11/18 11:19:55;;;;;;;;;;;6.80;99.90;;;;;;5154332;27;19915;-43
2022/11/18 11:22:21;;;;;;;;;;;6.70;99.90;;;;;;5153867;27;19911;-42
2022/11/18 11:24:47;;;;;;;;;;;6.70;99.90;;;;;;5153492;27;19913;-44
2022/11/18 11:27:15;;;;;;;;;;;6.70;99.90;;;;;;5151970;27;20369;-43
2022/11/18 11:29:46;;;;;;;;;;;6.80;99.90;;;;;;5153502;27;19979;-44
2022/11/18 11:32:24;;;;;;;;;;;6.70;99.90;;;;;;5155032;27;19929;-43
2022/11/18 11:34:50;;;;;;;;;;;6.70;99.90;;;;;;5155675;27;19907;-45
2022/11/18 11:37:24;;;;;;;;;;;6.70;99.90;;;;;;5155545;27;20360;-43
2022/11/18 11:40:02;;;;;;;;;;;6.70;99.90;;;;;;5154853;27;19907;-42
2022/11/18 11:42:27;;;;;;;;;;;6.80;99.90;;;;;;5154930;27;19964;-43
2022/11/18 11:45:00;;;;;;;;;;;6.80;99.90;;;;;;5154629;27;19908;-42
2022/11/18 11:47:46;;;;;;;;;;;6.80;99.90;;;;;;5153648;27;19969;-43
2022/11/18 11:50:18;;;;;;;;;;;6.80;99.90;;;;;;5154932;27;20262;-42
2022/11/18 11:52:50;;;;;;;;;;;6.70;99.90;;;;;;5154666;27;19907;-41
2022/11/18 11:55:18;;;;;;;;;;;6.70;99.90;;;;;;5153887;27;19907;-40
2022/11/18 11:58:03;;;;;;;;;;;6.70;99.90;;;;;;5154576;27;19911;-42
2022/11/18 12:00:31;;;;;;;;;;;6.70;99.90;;;;;;5153613;27;19998;-43
2022/11/18 12:03:25;;;;;;;;;;;6.70;99.90;;;;;;5154372;27;19907;-43
2022/11/18 12:05:50;;;;;;;;;;;6.60;99.90;;;;;;5154193;27;19930;-43
2022/11/18 12:08:24;;;;;;;;;;;6.60;99.90;;;;;;5153234;27;19915;-43
2022/11/18 12:10:56;;;;;;;;;;;6.60;99.90;;;;;;5154294;27;19907;-43
2022/11/18 12:13:27;;;;;;;;;;;6.60;99.90;;;;;;5153570;27;19907;-42
2022/11/18 12:16:05;;;;;;;;;;;6.60;99.90;;;;;;5153453;27;19911;-43
2022/11/18 12:18:40;;;;;;;;;;;6.50;99.90;;;;;;5154440;27;20357;-43
2022/11/18 12:21:05;;;;;;;;;;;6.40;99.90;;;;;;5154102;27;20005;-42
2022/11/18 12:23:32;;;;;;;;;;;6.40;99.90;;;;;;5153572;27;20323;-43
2022/11/18 12:25:59;;;;;;;;;;;6.30;99.90;;;;;;5154194;27;19911;-43
2022/11/18 12:28:29;;;;;;;;;;;6.30;99.90;;;;;;5153495;27;20370;-42
2022/11/18 12:31:13;;;;;;;;;;;6.20;99.90;;;;;;5154085;27;19921;-42
2022/11/18 12:33:43;;;;;;;;;;;6.20;99.90;;;;;;5153840;27;19907;-44
2022/11/18 12:36:09;;;;;;;;;;;6.20;99.90;;;;;;5152607;27;19961;-42
2022/11/18 12:38:34;;;;;;;;;;;6.20;99.90;;;;;;5154279;27;19950;-43
2022/11/18 12:43:45;;;;;;;;;;;6.10;99.90;;;;;;5154018;27;19911;-42
2022/11/18 12:43:49;;;;;;;;;;;6.10;99.90;;;;;;5153133;27;19938;-42
2022/11/18 12:46:33;;;;;;;;;;;6.00;99.90;;;;;;5153507;27;19966;-43
2022/11/18 12:49:18;;;;;;;;;;;6.00;99.90;;;;;;5153870;27;19915;-42
2022/11/18 12:51:45;;;;;;;;;;;6.00;99.90;;;;;;5153628;27;19914;-42
2022/11/18 12:54:29;;;;;;;;;;;6.00;99.90;;;;;;5153677;27;19911;-43
2022/11/18 12:56:56;;;;;;;;;;;6.00;99.90;;;;;;5153016;27;19998;-42
2022/11/18 12:59:26;;;;;;;;;;;6.00;99.90;;;;;;5150469;27;19907;-44
2022/11/18 13:02:01;;;;;;;;;;;5.90;99.90;;;;;;5144101;27;19968;-46
2022/11/18 13:04:27;;;;;;;;;;;5.90;99.90;;;;;;5148427;27;19911;-42
2022/11/18 13:06:54;;;;;;;;;;;5.80;99.90;;;;;;5152595;27;20017;-42
2022/11/18 13:09:22;;;;;;;;;;;5.90;99.90;;;;;;5152307;27;20314;-43
2022/11/18 13:11:58;;;;;;;;;;;5.80;99.90;;;;;;5150833;27;20234;-43
2022/11/18 13:20:38;;;;;;;;;;;5.80;99.90;;;;;;5132363;28;19958;-41
2022/11/18 13:26:05;;;;;;;;;;;5.70;99.90;;;;;;5144518;27;20330;-44
2022/11/18 13:28:45;;;;;;;;;;;5.70;99.90;;;;;;5157369;27;19918;-43
2022/11/18 13:31:22;;;;;;;;;;;5.70;99.90;;;;;;5157399;27;19938;-42
2022/11/18 13:33:48;;;;;;;;;;;5.70;99.90;;;;;;5156436;27;19952;-42
2022/11/18 13:36:16;;;;;;;;;;;5.70;99.90;;;;;;5157068;27;19907;-43
2022/11/18 13:38:53;;;;;;;;;;;5.70;99.90;;;;;;5156174;27;19993;-42
2022/11/18 13:41:22;;;;;;;;;;;5.70;99.90;;;;;;5157137;27;19913;-42
2022/11/18 13:43:49;;;;;;;;;;;5.70;99.90;;;;;;5156899;27;20384;-41
2022/11/18 13:46:17;;;;;;;;;;;5.70;99.90;;;;;;5156129;27;20322;-42
2022/11/18 13:48:47;;;;;;;;;;;5.70;99.90;;;;;;5155975;27;19911;-41
2022/11/18 13:51:12;;;;;;;;;;;5.70;99.90;;;;;;5157030;27;19907;-44
2022/11/18 13:53:39;;;;;;;;;;;5.70;99.90;;;;;;5156090;27;19914;-43
2022/11/18 13:56:11;;;;;;;;;;;5.70;99.90;;;;;;5156722;27;19907;-44
2022/11/18 13:58:41;;;;;;;;;;;5.70;99.90;;;;;;5156825;27;19914;-41
2022/11/18 14:01:33;;;;;;;;;;;5.70;99.90;;;;;;5155808;27;20353;-41
2022/11/18 14:03:58;;;;;;;;;;;5.80;99.90;;;;;;5151381;27;19915;-43
2022/11/18 14:06:31;;;;;;;;;;;5.70;99.90;;;;;;5156561;27;19960;-44
2022/11/18 14:09:16;;;;;;;;;;;5.70;99.90;;;;;;5155717;27;19907;-42
2022/11/18 14:11:42;;;;;;;;;;;5.70;99.90;;;;;;5156388;27;20378;-44
2022/11/18 14:14:09;;;;;;;;;;;5.70;99.90;;;;;;5155385;27;19911;-42
2022/11/18 14:16:36;;;;;;;;;;;5.60;99.90;;;;;;5155574;27;20350;-43
2022/11/18 14:19:01;;;;;;;;;;;5.60;99.90;;;;;;5156165;27;20395;-42
2022/11/18 14:21:28;;;;;;;;;;;5.60;99.90;;;;;;5155149;27;19998;-42
2022/11/18 14:23:53;;;;;;;;;;;5.50;99.90;;;;;;5156149;27;20002;-43
2022/11/18 14:26:29;;;;;;;;;;;5.50;99.90;;;;;;5156218;27;20018;-42
2022/11/18 14:28:56;;;;;;;;;;;5.50;99.90;;;;;;5155521;27;19907;-43
2022/11/18 14:31:26;;;;;;;;;;;5.40;99.90;;;;;;5155837;27;19913;-42
2022/11/18 14:34:07;;;;;;;;;;;5.40;99.90;;;;;;5155725;27;20422;-42
2022/11/18 14:36:33;;;;;;;;;;;5.40;99.90;;;;;;5154406;27;19918;-42
2022/11/18 14:38:58;;;;;;;;;;;5.30;99.90;;;;;;5155877;27;19907;-43
2022/11/18 14:44:09;;;;;;;;;;;5.30;99.90;;;;;;5155585;27;19921;-44
2022/11/18 14:46:38;;;;;;;;;;;5.30;99.90;;;;;;5155426;27;19926;-45
2022/11/18 14:49:05;;;;;;;;;;;5.30;99.90;;;;;;5136399;27;20301;-44
2022/11/18 14:51:31;;;;;;;;;;;5.20;99.90;;;;;;5155763;27;19911;-42
2022/11/18 14:53:56;;;;;;;;;;;5.20;99.90;;;;;;5155011;27;19918;-44
2022/11/18 14:56:32;;;;;;;;;;;5.20;99.90;;;;;;5152968;27;19994;-43
2022/11/18 14:58:58;;;;;;;;;;;5.20;99.90;;;;;;5152964;27;19911;-42
2022/11/18 15:01:24;;;;;;;;;;;5.10;99.90;;;;;;5152315;27;20511;-41
2022/11/18 15:03:52;;;;;;;;;;;5.10;99.90;;;;;;5153365;27;19915;-42
2022/11/18 15:06:19;;;;;;;;;;;5.00;99.90;;;;;;5155082;27;19983;-43
2022/11/18 15:08:45;;;;;;;;;;;5.00;99.90;;;;;;5154776;27;19907;-41
2022/11/18 15:11:11;;;;;;;;;;;4.90;99.90;;;;;;5150488;27;19919;-41